sensor_id;sensor_type;location;lat;lon;timestamp;P1;durP1;ratioP1;P2;durP2;ratioP2
64498;SDS011;51087;55.718;21.122;2023-07-28T00:02:17;5.97;;;2.00;;
64498;SDS011;51087;55.718;21.122;2023-07-28T00:04:43;5.57;;;2.25;;
64498;SDS011;51087;55.718;21.122;2023-07-28T00:07:08;5.07;;;2.30;;
64498;SDS011;51087;55.718;21.122;2023-07-28T00:09:33;5.85;;;2.70;;
64498;SDS011;51087;55.718;21.122;2023-07-28T00:11:59;6.68;;;2.45;;
64498;SDS011;51087;55.718;21.122;2023-07-28T00:14:25;4.65;;;2.45;;
64498;SDS011;51087;55.718;21.122;2023-07-28T00:16:51;5.20;;;2.42;;
64498;SDS011;51087;55.718;21.122;2023-07-28T00:19:16;6.15;;;2.70;;
64498;SDS011;51087;55.718;21.122;2023-07-28T00:21:42;4.13;;;2.63;;
64498;SDS011;51087;55.718;21.122;2023-07-28T00:24:07;9.18;;;2.80;;
64498;SDS011;51087;55.718;21.122;2023-07-28T00:26:32;9.13;;;2.80;;
64498;SDS011;51087;55.718;21.122;2023-07-28T00:28:57;5.82;;;3.00;;
64498;SDS011;51087;55.718;21.122;2023-07-28T00:31:24;7.70;;;3.50;;
64498;SDS011;51087;55.718;21.122;2023-07-28T00:33:49;6.63;;;3.38;;
64498;SDS011;51087;55.718;21.122;2023-07-28T00:36:14;7.30;;;3.95;;
64498;SDS011;51087;55.718;21.122;2023-07-28T00:38:40;8.48;;;3.90;;
64498;SDS011;51087;55.718;21.122;2023-07-28T00:41:05;10.85;;;4.00;;
64498;SDS011;51087;55.718;21.122;2023-07-28T00:43:30;6.57;;;3.45;;
64498;SDS011;51087;55.718;21.122;2023-07-28T00:45:55;8.60;;;4.30;;
64498;SDS011;51087;55.718;21.122;2023-07-28T00:48:21;6.93;;;3.40;;
64498;SDS011;51087;55.718;21.122;2023-07-28T00:50:48;5.65;;;3.40;;
64498;SDS011;51087;55.718;21.122;2023-07-28T00:53:14;7.10;;;3.63;;
64498;SDS011;51087;55.718;21.122;2023-07-28T00:55:39;6.32;;;3.40;;
64498;SDS011;51087;55.718;21.122;2023-07-28T00:58:04;8.88;;;3.50;;
64498;SDS011;51087;55.718;21.122;2023-07-28T01:00:30;5.43;;;3.42;;
64498;SDS011;51087;55.718;21.122;2023-07-28T01:02:55;8.88;;;3.30;;
64498;SDS011;51087;55.718;21.122;2023-07-28T01:05:22;6.03;;;2.95;;
64498;SDS011;51087;55.718;21.122;2023-07-28T01:07:56;7.03;;;3.20;;
64498;SDS011;51087;55.718;21.122;2023-07-28T01:10:30;6.30;;;3.13;;
64498;SDS011;51087;55.718;21.122;2023-07-28T01:12:56;9.65;;;3.00;;
64498;SDS011;51087;55.718;21.122;2023-07-28T01:15:22;8.32;;;3.00;;
64498;SDS011;51087;55.718;21.122;2023-07-28T01:17:47;5.97;;;2.67;;
64498;SDS011;51087;55.718;21.122;2023-07-28T01:20:12;7.20;;;2.63;;
64498;SDS011;51087;55.718;21.122;2023-07-28T01:27:52;8.57;;;2.63;;
64498;SDS011;51087;55.718;21.122;2023-07-28T01:30:18;7.25;;;2.22;;
64498;SDS011;51087;55.718;21.122;2023-07-28T01:32:46;3.95;;;1.92;;
64498;SDS011;51087;55.718;21.122;2023-07-28T01:35:11;5.82;;;2.40;;
64498;SDS011;51087;55.718;21.122;2023-07-28T01:37:37;5.40;;;2.38;;
64498;SDS011;51087;55.718;21.122;2023-07-28T01:40:02;6.45;;;2.03;;
64498;SDS011;51087;55.718;21.122;2023-07-28T01:42:27;8.30;;;2.10;;
64498;SDS011;51087;55.718;21.122;2023-07-28T01:44:53;6.57;;;2.22;;
64498;SDS011;51087;55.718;21.122;2023-07-28T01:47:18;7.60;;;2.13;;
64498;SDS011;51087;55.718;21.122;2023-07-28T01:49:43;5.63;;;2.13;;
64498;SDS011;51087;55.718;21.122;2023-07-28T01:52:08;4.28;;;2.30;;
64498;SDS011;51087;55.718;21.122;2023-07-28T01:54:34;5.57;;;2.03;;
64498;SDS011;51087;55.718;21.122;2023-07-28T01:56:59;3.63;;;1.90;;
64498;SDS011;51087;55.718;21.122;2023-07-28T01:59:24;5.93;;;2.20;;
64498;SDS011;51087;55.718;21.122;2023-07-28T02:01:50;5.45;;;2.40;;
64498;SDS011;51087;55.718;21.122;2023-07-28T02:04:15;6.07;;;2.60;;
64498;SDS011;51087;55.718;21.122;2023-07-28T02:06:41;6.53;;;2.08;;
64498;SDS011;51087;55.718;21.122;2023-07-28T02:09:06;5.57;;;2.30;;
64498;SDS011;51087;55.718;21.122;2023-07-28T02:11:32;5.47;;;2.13;;
64498;SDS011;51087;55.718;21.122;2023-07-28T02:13:57;9.98;;;2.60;;
64498;SDS011;51087;55.718;21.122;2023-07-28T02:16:23;5.30;;;2.30;;
64498;SDS011;51087;55.718;21.122;2023-07-28T02:18:48;5.93;;;2.50;;
64498;SDS011;51087;55.718;21.122;2023-07-28T02:21:14;5.07;;;2.30;;
64498;SDS011;51087;55.718;21.122;2023-07-28T02:23:39;6.35;;;2.63;;
64498;SDS011;51087;55.718;21.122;2023-07-28T02:26:04;6.05;;;2.33;;
64498;SDS011;51087;55.718;21.122;2023-07-28T02:28:30;13.15;;;2.50;;
64498;SDS011;51087;55.718;21.122;2023-07-28T02:30:55;7.13;;;2.67;;
64498;SDS011;51087;55.718;21.122;2023-07-28T02:33:20;10.98;;;3.30;;
64498;SDS011;51087;55.718;21.122;2023-07-28T02:35:45;6.20;;;2.80;;
64498;SDS011;51087;55.718;21.122;2023-07-28T02:38:11;7.75;;;2.58;;
64498;SDS011;51087;55.718;21.122;2023-07-28T02:40:36;5.97;;;2.30;;
64498;SDS011;51087;55.718;21.122;2023-07-28T02:43:01;4.60;;;2.20;;
64498;SDS011;51087;55.718;21.122;2023-07-28T02:45:26;5.70;;;2.47;;
64498;SDS011;51087;55.718;21.122;2023-07-28T02:47:52;9.18;;;2.55;;
64498;SDS011;51087;55.718;21.122;2023-07-28T02:50:17;8.32;;;2.33;;
64498;SDS011;51087;55.718;21.122;2023-07-28T02:52:42;3.47;;;2.05;;
64498;SDS011;51087;55.718;21.122;2023-07-28T02:55:08;5.82;;;2.25;;
64498;SDS011;51087;55.718;21.122;2023-07-28T02:57:33;5.65;;;2.67;;
64498;SDS011;51087;55.718;21.122;2023-07-28T02:59:58;4.35;;;2.30;;
64498;SDS011;51087;55.718;21.122;2023-07-28T03:02:24;4.88;;;2.65;;
64498;SDS011;51087;55.718;21.122;2023-07-28T03:04:49;8.88;;;3.03;;
64498;SDS011;51087;55.718;21.122;2023-07-28T03:07:14;8.93;;;3.50;;
64498;SDS011;51087;55.718;21.122;2023-07-28T03:09:40;7.45;;;3.17;;
64498;SDS011;51087;55.718;21.122;2023-07-28T03:12:05;7.68;;;2.97;;
64498;SDS011;51087;55.718;21.122;2023-07-28T03:14:31;8.77;;;3.20;;
64498;SDS011;51087;55.718;21.122;2023-07-28T03:16:57;6.75;;;3.20;;
64498;SDS011;51087;55.718;21.122;2023-07-28T03:19:22;8.32;;;3.13;;
64498;SDS011;51087;55.718;21.122;2023-07-28T03:21:47;6.53;;;3.08;;
64498;SDS011;51087;55.718;21.122;2023-07-28T03:24:12;5.90;;;2.70;;
64498;SDS011;51087;55.718;21.122;2023-07-28T03:26:38;7.28;;;3.10;;
64498;SDS011;51087;55.718;21.122;2023-07-28T03:29:03;8.77;;;3.15;;
64498;SDS011;51087;55.718;21.122;2023-07-28T03:31:29;6.78;;;3.38;;
64498;SDS011;51087;55.718;21.122;2023-07-28T03:33:54;10.77;;;3.33;;
64498;SDS011;51087;55.718;21.122;2023-07-28T03:36:19;5.45;;;3.13;;
64498;SDS011;51087;55.718;21.122;2023-07-28T03:38:45;9.20;;;3.03;;
64498;SDS011;51087;55.718;21.122;2023-07-28T03:41:11;8.15;;;3.22;;
64498;SDS011;51087;55.718;21.122;2023-07-28T03:43:36;11.15;;;3.60;;
64498;SDS011;51087;55.718;21.122;2023-07-28T03:46:01;6.55;;;3.28;;
64498;SDS011;51087;55.718;21.122;2023-07-28T03:48:27;6.75;;;3.63;;
64498;SDS011;51087;55.718;21.122;2023-07-28T03:50:52;7.50;;;3.30;;
64498;SDS011;51087;55.718;21.122;2023-07-28T03:53:17;6.40;;;3.60;;
64498;SDS011;51087;55.718;21.122;2023-07-28T03:55:42;6.53;;;3.80;;
64498;SDS011;51087;55.718;21.122;2023-07-28T03:58:08;7.68;;;3.40;;
64498;SDS011;51087;55.718;21.122;2023-07-28T04:00:33;8.63;;;3.60;;
64498;SDS011;51087;55.718;21.122;2023-07-28T04:02:58;7.95;;;3.80;;
64498;SDS011;51087;55.718;21.122;2023-07-28T04:05:24;11.13;;;3.95;;
64498;SDS011;51087;55.718;21.122;2023-07-28T04:07:49;10.77;;;4.22;;
64498;SDS011;51087;55.718;21.122;2023-07-28T04:10:14;8.90;;;3.78;;
64498;SDS011;51087;55.718;21.122;2023-07-28T04:12:40;10.68;;;4.32;;
64498;SDS011;51087;55.718;21.122;2023-07-28T04:15:05;8.15;;;3.85;;
64498;SDS011;51087;55.718;21.122;2023-07-28T04:17:30;7.53;;;4.00;;
64498;SDS011;51087;55.718;21.122;2023-07-28T04:19:56;6.68;;;3.90;;
64498;SDS011;51087;55.718;21.122;2023-07-28T04:22:21;9.45;;;4.10;;
64498;SDS011;51087;55.718;21.122;2023-07-28T04:24:47;9.43;;;4.22;;
64498;SDS011;51087;55.718;21.122;2023-07-28T04:27:13;12.93;;;4.38;;
64498;SDS011;51087;55.718;21.122;2023-07-28T04:29:38;9.52;;;4.20;;
64498;SDS011;51087;55.718;21.122;2023-07-28T04:32:03;12.63;;;4.75;;
64498;SDS011;51087;55.718;21.122;2023-07-28T04:34:29;8.02;;;4.20;;
64498;SDS011;51087;55.718;21.122;2023-07-28T04:36:54;15.73;;;4.90;;
64498;SDS011;51087;55.718;21.122;2023-07-28T04:39:20;14.77;;;5.18;;
64498;SDS011;51087;55.718;21.122;2023-07-28T04:41:45;18.58;;;5.20;;
64498;SDS011;51087;55.718;21.122;2023-07-28T04:44:10;22.38;;;5.50;;
64498;SDS011;51087;55.718;21.122;2023-07-28T04:46:36;40.40;;;6.38;;
64498;SDS011;51087;55.718;21.122;2023-07-28T04:49:01;35.20;;;7.65;;
64498;SDS011;51087;55.718;21.122;2023-07-28T04:51:27;49.65;;;7.90;;
64498;SDS011;51087;55.718;21.122;2023-07-28T04:53:53;35.63;;;7.75;;
64498;SDS011;51087;55.718;21.122;2023-07-28T04:56:18;37.35;;;6.68;;
64498;SDS011;51087;55.718;21.122;2023-07-28T04:58:43;51.85;;;7.13;;
64498;SDS011;51087;55.718;21.122;2023-07-28T05:01:08;27.77;;;6.40;;
64498;SDS011;51087;55.718;21.122;2023-07-28T05:03:34;24.92;;;8.32;;
64498;SDS011;51087;55.718;21.122;2023-07-28T05:05:59;15.35;;;5.70;;
64498;SDS011;51087;55.718;21.122;2023-07-28T05:08:24;13.52;;;5.10;;
64498;SDS011;51087;55.718;21.122;2023-07-28T05:10:50;11.73;;;4.82;;
64498;SDS011;51087;55.718;21.122;2023-07-28T05:13:15;13.57;;;5.07;;
64498;SDS011;51087;55.718;21.122;2023-07-28T05:15:41;17.35;;;4.75;;
64498;SDS011;51087;55.718;21.122;2023-07-28T05:18:06;14.77;;;4.80;;
64498;SDS011;51087;55.718;21.122;2023-07-28T05:20:35;10.15;;;4.75;;
64498;SDS011;51087;55.718;21.122;2023-07-28T05:23:00;13.48;;;4.75;;
64498;SDS011;51087;55.718;21.122;2023-07-28T05:25:25;14.10;;;4.85;;
64498;SDS011;51087;55.718;21.122;2023-07-28T05:27:50;7.30;;;4.35;;
64498;SDS011;51087;55.718;21.122;2023-07-28T05:30:16;9.75;;;4.68;;
64498;SDS011;51087;55.718;21.122;2023-07-28T05:32:41;11.27;;;4.30;;
64498;SDS011;51087;55.718;21.122;2023-07-28T05:35:07;14.35;;;4.32;;
64498;SDS011;51087;55.718;21.122;2023-07-28T05:37:32;15.75;;;4.70;;
64498;SDS011;51087;55.718;21.122;2023-07-28T05:39:57;10.98;;;4.18;;
64498;SDS011;51087;55.718;21.122;2023-07-28T05:42:22;13.65;;;4.40;;
64498;SDS011;51087;55.718;21.122;2023-07-28T05:44:49;7.10;;;4.25;;
64498;SDS011;51087;55.718;21.122;2023-07-28T05:47:14;18.70;;;4.90;;
64498;SDS011;51087;55.718;21.122;2023-07-28T05:49:39;9.85;;;4.75;;
64498;SDS011;51087;55.718;21.122;2023-07-28T05:52:05;16.48;;;4.90;;
64498;SDS011;51087;55.718;21.122;2023-07-28T05:54:30;18.38;;;6.00;;
64498;SDS011;51087;55.718;21.122;2023-07-28T05:56:56;9.40;;;4.65;;
64498;SDS011;51087;55.718;21.122;2023-07-28T05:59:21;12.00;;;5.63;;
64498;SDS011;51087;55.718;21.122;2023-07-28T06:01:46;9.68;;;5.57;;
64498;SDS011;51087;55.718;21.122;2023-07-28T06:04:12;10.18;;;5.15;;
64498;SDS011;51087;55.718;21.122;2023-07-28T06:06:37;9.85;;;4.88;;
64498;SDS011;51087;55.718;21.122;2023-07-28T06:09:02;10.35;;;4.80;;
64498;SDS011;51087;55.718;21.122;2023-07-28T06:11:28;15.70;;;5.82;;
64498;SDS011;51087;55.718;21.122;2023-07-28T06:13:53;15.38;;;4.63;;
64498;SDS011;51087;55.718;21.122;2023-07-28T06:16:18;10.50;;;4.05;;
64498;SDS011;51087;55.718;21.122;2023-07-28T06:18:44;9.77;;;4.47;;
64498;SDS011;51087;55.718;21.122;2023-07-28T06:21:09;8.73;;;4.68;;
64498;SDS011;51087;55.718;21.122;2023-07-28T06:23:34;8.32;;;4.47;;
64498;SDS011;51087;55.718;21.122;2023-07-28T06:26:00;6.28;;;3.90;;
64498;SDS011;51087;55.718;21.122;2023-07-28T06:28:25;16.30;;;5.05;;
64498;SDS011;51087;55.718;21.122;2023-07-28T06:30:54;10.48;;;4.25;;
64498;SDS011;51087;55.718;21.122;2023-07-28T06:33:20;10.55;;;4.32;;
64498;SDS011;51087;55.718;21.122;2023-07-28T06:35:46;11.70;;;4.25;;
64498;SDS011;51087;55.718;21.122;2023-07-28T06:38:11;6.95;;;3.20;;
64498;SDS011;51087;55.718;21.122;2023-07-28T06:40:36;16.88;;;4.55;;
64498;SDS011;51087;55.718;21.122;2023-07-28T06:43:01;5.68;;;2.70;;
64498;SDS011;51087;55.718;21.122;2023-07-28T06:45:27;12.48;;;3.10;;
64498;SDS011;51087;55.718;21.122;2023-07-28T06:47:52;11.18;;;3.00;;
64498;SDS011;51087;55.718;21.122;2023-07-28T06:50:17;15.25;;;2.78;;
64498;SDS011;51087;55.718;21.122;2023-07-28T06:52:43;5.00;;;2.30;;
64498;SDS011;51087;55.718;21.122;2023-07-28T06:55:08;7.78;;;2.53;;
64498;SDS011;51087;55.718;21.122;2023-07-28T06:57:33;9.35;;;3.75;;
64498;SDS011;51087;55.718;21.122;2023-07-28T07:00:00;7.55;;;3.10;;
64498;SDS011;51087;55.718;21.122;2023-07-28T07:02:25;9.65;;;2.75;;
64498;SDS011;51087;55.718;21.122;2023-07-28T07:04:50;17.65;;;6.82;;
64498;SDS011;51087;55.718;21.122;2023-07-28T07:07:15;8.27;;;2.70;;
64498;SDS011;51087;55.718;21.122;2023-07-28T07:09:41;10.75;;;3.75;;
64498;SDS011;51087;55.718;21.122;2023-07-28T07:12:09;10.65;;;4.30;;
64498;SDS011;51087;55.718;21.122;2023-07-28T07:14:34;24.60;;;3.65;;
64498;SDS011;51087;55.718;21.122;2023-07-28T07:17:00;8.70;;;2.90;;
64498;SDS011;51087;55.718;21.122;2023-07-28T07:19:25;6.20;;;2.63;;
64498;SDS011;51087;55.718;21.122;2023-07-28T07:21:52;14.55;;;3.00;;
64498;SDS011;51087;55.718;21.122;2023-07-28T07:24:17;12.93;;;3.10;;
64498;SDS011;51087;55.718;21.122;2023-07-28T07:26:43;9.02;;;3.40;;
64498;SDS011;51087;55.718;21.122;2023-07-28T07:29:08;7.95;;;3.67;;
64498;SDS011;51087;55.718;21.122;2023-07-28T07:31:34;6.70;;;3.00;;
64498;SDS011;51087;55.718;21.122;2023-07-28T07:33:59;9.88;;;4.15;;
64498;SDS011;51087;55.718;21.122;2023-07-28T07:36:25;7.05;;;2.60;;
64498;SDS011;51087;55.718;21.122;2023-07-28T07:38:50;5.22;;;2.42;;
64498;SDS011;51087;55.718;21.122;2023-07-28T07:41:16;8.55;;;2.50;;
64498;SDS011;51087;55.718;21.122;2023-07-28T07:43:45;10.88;;;2.92;;
64498;SDS011;51087;55.718;21.122;2023-07-28T07:46:10;10.23;;;3.55;;
64498;SDS011;51087;55.718;21.122;2023-07-28T07:48:36;3.63;;;1.90;;
64498;SDS011;51087;55.718;21.122;2023-07-28T07:51:01;5.10;;;2.00;;
64498;SDS011;51087;55.718;21.122;2023-07-28T07:53:26;3.85;;;2.40;;
64498;SDS011;51087;55.718;21.122;2023-07-28T07:55:52;4.53;;;2.10;;
64498;SDS011;51087;55.718;21.122;2023-07-28T07:58:17;7.65;;;2.65;;
64498;SDS011;51087;55.718;21.122;2023-07-28T08:00:42;5.75;;;2.22;;
64498;SDS011;51087;55.718;21.122;2023-07-28T08:03:09;5.97;;;2.00;;
64498;SDS011;51087;55.718;21.122;2023-07-28T08:05:35;5.95;;;2.15;;
64498;SDS011;51087;55.718;21.122;2023-07-28T08:08:00;8.65;;;3.05;;
64498;SDS011;51087;55.718;21.122;2023-07-28T08:10:25;10.68;;;3.25;;
64498;SDS011;51087;55.718;21.122;2023-07-28T08:12:51;8.70;;;3.25;;
64498;SDS011;51087;55.718;21.122;2023-07-28T08:15:16;9.10;;;3.42;;
64498;SDS011;51087;55.718;21.122;2023-07-28T08:17:41;16.23;;;4.38;;
64498;SDS011;51087;55.718;21.122;2023-07-28T08:20:07;13.23;;;5.70;;
64498;SDS011;51087;55.718;21.122;2023-07-28T08:22:35;6.30;;;3.63;;
64498;SDS011;51087;55.718;21.122;2023-07-28T08:25:01;23.13;;;7.95;;
64498;SDS011;51087;55.718;21.122;2023-07-28T08:27:26;5.57;;;3.08;;
64498;SDS011;51087;55.718;21.122;2023-07-28T08:29:51;9.45;;;3.80;;
64498;SDS011;51087;55.718;21.122;2023-07-28T08:32:17;7.07;;;3.15;;
64498;SDS011;51087;55.718;21.122;2023-07-28T08:34:42;8.52;;;3.13;;
64498;SDS011;51087;55.718;21.122;2023-07-28T08:37:07;6.22;;;3.28;;
64498;SDS011;51087;55.718;21.122;2023-07-28T08:39:33;9.00;;;3.63;;
64498;SDS011;51087;55.718;21.122;2023-07-28T08:42:01;7.47;;;2.88;;
64498;SDS011;51087;55.718;21.122;2023-07-28T08:44:31;8.10;;;3.70;;
64498;SDS011;51087;55.718;21.122;2023-07-28T08:46:57;9.35;;;2.80;;
64498;SDS011;51087;55.718;21.122;2023-07-28T08:49:22;6.68;;;2.42;;
64498;SDS011;51087;55.718;21.122;2023-07-28T08:51:50;8.98;;;4.93;;
64498;SDS011;51087;55.718;21.122;2023-07-28T08:54:16;13.95;;;3.60;;
64498;SDS011;51087;55.718;21.122;2023-07-28T08:56:44;10.18;;;5.20;;
64498;SDS011;51087;55.718;21.122;2023-07-28T08:59:10;9.02;;;3.55;;
64498;SDS011;51087;55.718;21.122;2023-07-28T09:01:41;10.43;;;3.33;;
64498;SDS011;51087;55.718;21.122;2023-07-28T09:04:11;10.68;;;2.95;;
64498;SDS011;51087;55.718;21.122;2023-07-28T09:06:37;8.05;;;3.00;;
64498;SDS011;51087;55.718;21.122;2023-07-28T09:09:05;7.07;;;3.40;;
64498;SDS011;51087;55.718;21.122;2023-07-28T09:11:31;10.68;;;3.35;;
64498;SDS011;51087;55.718;21.122;2023-07-28T09:13:59;7.88;;;3.20;;
64498;SDS011;51087;55.718;21.122;2023-07-28T09:16:25;13.27;;;4.30;;
64498;SDS011;51087;55.718;21.122;2023-07-28T09:18:50;11.00;;;3.65;;
64498;SDS011;51087;55.718;21.122;2023-07-28T09:21:19;9.40;;;3.58;;
64498;SDS011;51087;55.718;21.122;2023-07-28T09:23:51;7.18;;;3.42;;
64498;SDS011;51087;55.718;21.122;2023-07-28T09:26:16;7.20;;;3.38;;
64498;SDS011;51087;55.718;21.122;2023-07-28T09:28:42;8.85;;;3.75;;
64498;SDS011;51087;55.718;21.122;2023-07-28T09:31:08;5.68;;;3.28;;
64498;SDS011;51087;55.718;21.122;2023-07-28T09:33:35;6.47;;;3.22;;
64498;SDS011;51087;55.718;21.122;2023-07-28T09:36:08;8.30;;;3.47;;
64498;SDS011;51087;55.718;21.122;2023-07-28T09:38:34;8.35;;;3.15;;
64498;SDS011;51087;55.718;21.122;2023-07-28T09:41:00;6.95;;;3.63;;
64498;SDS011;51087;55.718;21.122;2023-07-28T09:43:27;7.70;;;4.10;;
64498;SDS011;51087;55.718;21.122;2023-07-28T09:45:52;7.22;;;3.80;;
64498;SDS011;51087;55.718;21.122;2023-07-28T09:48:17;9.07;;;4.28;;
64498;SDS011;51087;55.718;21.122;2023-07-28T09:50:43;11.95;;;4.38;;
64498;SDS011;51087;55.718;21.122;2023-07-28T09:53:09;10.32;;;4.35;;
64498;SDS011;51087;55.718;21.122;2023-07-28T09:55:38;9.80;;;4.65;;
64498;SDS011;51087;55.718;21.122;2023-07-28T09:58:04;9.13;;;4.75;;
64498;SDS011;51087;55.718;21.122;2023-07-28T10:00:32;11.38;;;4.25;;
64498;SDS011;51087;55.718;21.122;2023-07-28T10:02:58;8.73;;;4.50;;
64498;SDS011;51087;55.718;21.122;2023-07-28T10:05:23;6.82;;;3.40;;
64498;SDS011;51087;55.718;21.122;2023-07-28T10:07:49;11.25;;;4.40;;
64498;SDS011;51087;55.718;21.122;2023-07-28T10:10:15;6.15;;;3.70;;
64498;SDS011;51087;55.718;21.122;2023-07-28T10:12:47;5.70;;;3.30;;
64498;SDS011;51087;55.718;21.122;2023-07-28T10:15:13;5.80;;;3.35;;
64498;SDS011;51087;55.718;21.122;2023-07-28T10:17:50;8.13;;;3.38;;
64498;SDS011;51087;55.718;21.122;2023-07-28T10:20:27;5.90;;;3.35;;
64498;SDS011;51087;55.718;21.122;2023-07-28T10:22:52;6.55;;;3.20;;
64498;SDS011;51087;55.718;21.122;2023-07-28T10:25:27;10.05;;;2.97;;
64498;SDS011;51087;55.718;21.122;2023-07-28T10:27:52;5.60;;;3.30;;
64498;SDS011;51087;55.718;21.122;2023-07-28T10:30:18;5.13;;;2.88;;
64498;SDS011;51087;55.718;21.122;2023-07-28T10:32:45;6.45;;;3.13;;
64498;SDS011;51087;55.718;21.122;2023-07-28T10:37:39;6.03;;;2.85;;
64498;SDS011;51087;55.718;21.122;2023-07-28T10:42:51;6.20;;;2.90;;
64498;SDS011;51087;55.718;21.122;2023-07-28T10:45:16;5.95;;;3.45;;
64498;SDS011;51087;55.718;21.122;2023-07-28T10:47:42;5.85;;;3.40;;
64498;SDS011;51087;55.718;21.122;2023-07-28T10:50:08;6.32;;;3.13;;
64498;SDS011;51087;55.718;21.122;2023-07-28T10:52:34;7.60;;;3.20;;
64498;SDS011;51087;55.718;21.122;2023-07-28T10:54:59;7.38;;;3.10;;
64498;SDS011;51087;55.718;21.122;2023-07-28T10:57:24;5.85;;;3.42;;
64498;SDS011;51087;55.718;21.122;2023-07-28T10:59:51;7.15;;;3.25;;
64498;SDS011;51087;55.718;21.122;2023-07-28T11:02:16;6.20;;;3.30;;
64498;SDS011;51087;55.718;21.122;2023-07-28T11:04:45;11.50;;;3.28;;
64498;SDS011;51087;55.718;21.122;2023-07-28T11:07:11;8.32;;;3.42;;
64498;SDS011;51087;55.718;21.122;2023-07-28T11:09:38;8.57;;;2.78;;
64498;SDS011;51087;55.718;21.122;2023-07-28T11:12:03;5.82;;;3.08;;
64498;SDS011;51087;55.718;21.122;2023-07-28T11:14:30;6.28;;;3.28;;
64498;SDS011;51087;55.718;21.122;2023-07-28T11:16:56;13.25;;;2.95;;
64498;SDS011;51087;55.718;21.122;2023-07-28T11:19:21;9.30;;;3.25;;
64498;SDS011;51087;55.718;21.122;2023-07-28T11:21:49;6.63;;;2.90;;
64498;SDS011;51087;55.718;21.122;2023-07-28T11:24:19;6.65;;;2.80;;
64498;SDS011;51087;55.718;21.122;2023-07-28T11:26:45;5.55;;;2.72;;
64498;SDS011;51087;55.718;21.122;2023-07-28T11:29:13;7.82;;;2.50;;
64498;SDS011;51087;55.718;21.122;2023-07-28T11:31:38;8.05;;;3.03;;
64498;SDS011;51087;55.718;21.122;2023-07-28T11:34:18;4.45;;;2.45;;
64498;SDS011;51087;55.718;21.122;2023-07-28T11:36:43;8.18;;;2.70;;
64498;SDS011;51087;55.718;21.122;2023-07-28T11:39:09;6.47;;;2.60;;
64498;SDS011;51087;55.718;21.122;2023-07-28T11:41:35;8.70;;;3.17;;
64498;SDS011;51087;55.718;21.122;2023-07-28T11:44:01;8.45;;;2.63;;
64498;SDS011;51087;55.718;21.122;2023-07-28T11:46:37;6.93;;;2.92;;
64498;SDS011;51087;55.718;21.122;2023-07-28T11:49:06;7.95;;;2.63;;
64498;SDS011;51087;55.718;21.122;2023-07-28T11:51:31;6.80;;;2.88;;
64498;SDS011;51087;55.718;21.122;2023-07-28T11:53:57;7.50;;;3.15;;
64498;SDS011;51087;55.718;21.122;2023-07-28T11:56:22;8.45;;;3.00;;
64498;SDS011;51087;55.718;21.122;2023-07-28T11:58:50;6.53;;;2.60;;
64498;SDS011;51087;55.718;21.122;2023-07-28T12:01:16;9.68;;;2.65;;
64498;SDS011;51087;55.718;21.122;2023-07-28T12:03:41;4.70;;;2.90;;
64498;SDS011;51087;55.718;21.122;2023-07-28T12:06:06;8.70;;;2.97;;
64498;SDS011;51087;55.718;21.122;2023-07-28T12:08:37;9.30;;;3.10;;
64498;SDS011;51087;55.718;21.122;2023-07-28T12:11:03;7.57;;;3.15;;
64498;SDS011;51087;55.718;21.122;2023-07-28T12:13:28;9.80;;;2.97;;
64498;SDS011;51087;55.718;21.122;2023-07-28T12:15:54;6.60;;;2.80;;
64498;SDS011;51087;55.718;21.122;2023-07-28T12:18:19;6.75;;;2.70;;
64498;SDS011;51087;55.718;21.122;2023-07-28T12:20:45;4.78;;;2.72;;
64498;SDS011;51087;55.718;21.122;2023-07-28T12:23:18;7.88;;;3.03;;
64498;SDS011;51087;55.718;21.122;2023-07-28T12:25:44;4.93;;;2.90;;
64498;SDS011;51087;55.718;21.122;2023-07-28T12:28:09;5.13;;;2.40;;
64498;SDS011;51087;55.718;21.122;2023-07-28T12:30:35;10.73;;;3.00;;
64498;SDS011;51087;55.718;21.122;2023-07-28T12:33:01;8.52;;;2.78;;
64498;SDS011;51087;55.718;21.122;2023-07-28T12:35:26;5.57;;;2.83;;
64498;SDS011;51087;55.718;21.122;2023-07-28T12:38:00;4.25;;;2.50;;
64498;SDS011;51087;55.718;21.122;2023-07-28T12:40:26;4.55;;;2.70;;
64498;SDS011;51087;55.718;21.122;2023-07-28T12:42:52;6.90;;;2.70;;
64498;SDS011;51087;55.718;21.122;2023-07-28T12:45:17;4.90;;;2.63;;
64498;SDS011;51087;55.718;21.122;2023-07-28T12:47:43;5.45;;;2.78;;
64498;SDS011;51087;55.718;21.122;2023-07-28T12:50:08;8.63;;;2.83;;
64498;SDS011;51087;55.718;21.122;2023-07-28T12:52:35;5.90;;;2.80;;
64498;SDS011;51087;55.718;21.122;2023-07-28T12:55:00;8.27;;;2.70;;
64498;SDS011;51087;55.718;21.122;2023-07-28T12:57:25;5.90;;;2.78;;
64498;SDS011;51087;55.718;21.122;2023-07-28T12:59:50;8.70;;;3.65;;
64498;SDS011;51087;55.718;21.122;2023-07-28T13:02:16;8.75;;;2.50;;
64498;SDS011;51087;55.718;21.122;2023-07-28T13:04:42;5.35;;;2.80;;
64498;SDS011;51087;55.718;21.122;2023-07-28T13:07:07;9.10;;;2.90;;
64498;SDS011;51087;55.718;21.122;2023-07-28T13:09:32;3.58;;;2.30;;
64498;SDS011;51087;55.718;21.122;2023-07-28T13:11:57;7.15;;;2.80;;
64498;SDS011;51087;55.718;21.122;2023-07-28T13:14:23;7.28;;;2.50;;
64498;SDS011;51087;55.718;21.122;2023-07-28T13:16:48;3.85;;;2.40;;
64498;SDS011;51087;55.718;21.122;2023-07-28T13:19:14;5.70;;;2.45;;
64498;SDS011;51087;55.718;21.122;2023-07-28T13:21:39;3.67;;;2.60;;
64498;SDS011;51087;55.718;21.122;2023-07-28T13:24:05;5.10;;;2.40;;
64498;SDS011;51087;55.718;21.122;2023-07-28T13:26:30;4.65;;;2.40;;
64498;SDS011;51087;55.718;21.122;2023-07-28T13:28:55;3.95;;;2.45;;
64498;SDS011;51087;55.718;21.122;2023-07-28T13:31:23;4.65;;;2.95;;
64498;SDS011;51087;55.718;21.122;2023-07-28T13:33:48;7.25;;;3.25;;
64498;SDS011;51087;55.718;21.122;2023-07-28T13:36:13;6.28;;;4.15;;
64498;SDS011;51087;55.718;21.122;2023-07-28T13:38:39;6.43;;;3.80;;
64498;SDS011;51087;55.718;21.122;2023-07-28T13:41:05;13.23;;;7.50;;
64498;SDS011;51087;55.718;21.122;2023-07-28T13:43:31;8.80;;;4.25;;
64498;SDS011;51087;55.718;21.122;2023-07-28T13:45:56;10.88;;;5.70;;
64498;SDS011;51087;55.718;21.122;2023-07-28T13:48:22;11.57;;;6.93;;
64498;SDS011;51087;55.718;21.122;2023-07-28T13:50:47;18.73;;;8.77;;
64498;SDS011;51087;55.718;21.122;2023-07-28T13:53:12;11.38;;;6.63;;
64498;SDS011;51087;55.718;21.122;2023-07-28T13:55:37;4.47;;;3.03;;
64498;SDS011;51087;55.718;21.122;2023-07-28T13:58:03;6.97;;;3.78;;
64498;SDS011;51087;55.718;21.122;2023-07-28T14:00:29;11.35;;;5.50;;
64498;SDS011;51087;55.718;21.122;2023-07-28T14:02:54;9.52;;;3.83;;
64498;SDS011;51087;55.718;21.122;2023-07-28T14:05:20;10.98;;;5.28;;
64498;SDS011;51087;55.718;21.122;2023-07-28T14:07:45;7.80;;;3.30;;
64498;SDS011;51087;55.718;21.122;2023-07-28T14:10:11;15.88;;;6.43;;
64498;SDS011;51087;55.718;21.122;2023-07-28T14:12:36;12.18;;;5.40;;
64498;SDS011;51087;55.718;21.122;2023-07-28T14:15:02;9.93;;;4.35;;
64498;SDS011;51087;55.718;21.122;2023-07-28T14:17:28;7.50;;;3.70;;
64498;SDS011;51087;55.718;21.122;2023-07-28T14:19:53;7.75;;;4.20;;
64498;SDS011;51087;55.718;21.122;2023-07-28T14:22:18;4.97;;;2.65;;
64498;SDS011;51087;55.718;21.122;2023-07-28T14:24:43;6.05;;;3.55;;
64498;SDS011;51087;55.718;21.122;2023-07-28T14:27:09;8.82;;;3.13;;
64498;SDS011;51087;55.718;21.122;2023-07-28T14:29:34;6.53;;;2.60;;
64498;SDS011;51087;55.718;21.122;2023-07-28T14:31:59;9.88;;;4.13;;
64498;SDS011;51087;55.718;21.122;2023-07-28T14:34:24;8.48;;;3.00;;